Time;durP1;ratioP1;P1;durP2;ratioP2;P2;SDS_P1;SDS_P2;PMS_P1;PMS_P2;Temp;Humidity;BMP_temperature;BMP_pressure;BME280_temperature;BME280_humidity;BME280_pressure;Samples;Min_cycle;Max_cycle;Signal;HPM_P1;HPM_P2
2022/05/22 00:02:31;;;;;;;4.73;2.80;;;15.60;99.90;;;;;;10475219;28;20226;-70
2022/05/22 00:07:31;;;;;;;4.83;2.33;;;15.60;99.90;;;;;;10469922;28;20253;-70
2022/05/22 00:12:32;;;;;;;6.17;2.50;;;15.50;99.90;;;;;;10469598;28;20207;-70
2022/05/22 00:17:33;;;;;;;4.77;2.50;;;15.40;99.90;;;;;;10469031;28;20260;-70
2022/05/22 00:22:33;;;;;;;5.30;2.90;;;15.30;99.90;;;;;;10452948;28;20214;-69
2022/05/22 00:27:34;;;;;;;2.23;1.90;;;15.20;99.90;;;;;;10467308;28;20226;-70
2022/05/22 00:32:35;;;;;;;3.37;2.30;;;15.20;99.90;;;;;;10467216;28;20285;-70
2022/05/22 00:37:36;;;;;;;5.40;3.03;;;15.10;99.90;;;;;;10468737;28;20261;-70
2022/05/22 00:42:37;;;;;;;6.20;3.03;;;15.10;99.90;;;;;;10477734;28;20267;-70
2022/05/22 00:47:38;;;;;;;6.53;2.90;;;14.90;99.90;;;;;;10459044;28;20226;-70
2022/05/22 00:52:46;;;;;;;3.60;3.03;;;14.90;99.90;;;;;;10477119;28;20222;-69
2022/05/22 00:57:50;;;;;;;4.87;3.13;;;14.80;99.90;;;;;;10466995;28;20224;-70
2022/05/22 01:08:10;;;;;;;6.07;3.50;;;14.60;99.90;;;;;;10457042;28;20290;-70
2022/05/22 01:13:18;;;;;;;7.63;3.33;;;14.60;99.90;;;;;;10464033;28;20219;-70
2022/05/22 01:18:18;;;;;;;5.50;3.20;;;14.40;99.90;;;;;;10467025;28;20227;-70
2022/05/22 01:23:21;;;;;;;7.43;3.03;;;14.40;99.90;;;;;;10473082;28;20261;-69
2022/05/22 01:28:25;;;;;;;4.23;2.73;;;14.40;99.90;;;;;;10473584;28;20386;-69
2022/05/22 01:33:26;;;;;;;6.30;3.07;;;14.50;99.90;;;;;;10465860;28;20544;-70
2022/05/22 01:38:27;;;;;;;5.53;2.60;;;14.60;99.90;;;;;;10464810;28;20203;-70
2022/05/22 01:43:28;;;;;;;4.13;2.50;;;14.60;99.90;;;;;;10460154;28;20441;-71
2022/05/22 01:48:29;;;;;;;4.17;2.50;;;14.60;99.90;;;;;;10469236;28;20275;-70
2022/05/22 01:53:30;;;;;;;5.90;2.17;;;14.60;99.90;;;;;;10470804;28;20322;-70
2022/05/22 01:58:31;;;;;;;4.17;2.47;;;14.60;99.90;;;;;;10472826;28;20277;-70
2022/05/22 02:03:31;;;;;;;3.43;2.40;;;14.60;99.90;;;;;;10463523;28;20242;-70
2022/05/22 02:08:32;;;;;;;2.70;2.30;;;14.60;99.90;;;;;;10458953;28;20222;-70
2022/05/22 02:13:37;;;;;;;6.20;2.97;;;14.60;99.90;;;;;;10464990;28;20284;-70
2022/05/22 02:18:37;;;;;;;5.57;2.77;;;14.50;99.90;;;;;;10461354;28;20215;-69
2022/05/22 02:23:38;;;;;;;5.47;2.70;;;14.40;99.90;;;;;;10465460;28;20613;-70
2022/05/22 02:28:39;;;;;;;4.33;2.30;;;14.30;99.90;;;;;;10474374;28;20227;-70
2022/05/22 02:33:40;;;;;;;2.80;2.27;;;14.30;99.90;;;;;;10473507;28;20236;-69
2022/05/22 02:38:42;;;;;;;5.03;2.37;;;14.40;99.90;;;;;;10469762;28;20368;-69
2022/05/22 02:43:43;;;;;;;5.10;2.50;;;14.30;99.90;;;;;;10495479;28;20260;-69
2022/05/22 02:48:43;;;;;;;2.60;2.20;;;14.30;99.90;;;;;;10474521;28;20258;-71
2022/05/22 02:53:48;;;;;;;3.77;2.60;;;14.30;99.90;;;;;;10471954;28;20263;-70
2022/05/22 02:58:49;;;;;;;4.70;2.33;;;14.20;99.90;;;;;;10463849;28;20222;-71
2022/05/22 03:03:50;;;;;;;5.93;2.63;;;14.10;99.90;;;;;;10472800;28;20219;-69
2022/05/22 03:08:51;;;;;;;3.13;2.67;;;14.00;99.90;;;;;;10469965;28;20231;-70
2022/05/22 03:13:54;;;;;;;2.57;2.23;;;13.90;99.90;;;;;;10470934;28;20724;-70
2022/05/22 03:18:59;;;;;;;4.67;2.83;;;13.80;99.90;;;;;;10459716;28;20271;-68
2022/05/22 03:23:59;;;;;;;3.70;2.50;;;13.70;99.90;;;;;;10475669;28;20619;-70
2022/05/22 03:29:00;;;;;;;2.97;2.10;;;13.60;99.90;;;;;;10474867;28;20223;-69
2022/05/22 03:34:01;;;;;;;4.67;2.57;;;13.60;99.90;;;;;;10469788;28;20207;-70
2022/05/22 03:39:01;;;;;;;5.53;2.60;;;13.60;99.90;;;;;;10467046;28;20598;-70
2022/05/22 03:44:02;;;;;;;3.60;2.30;;;13.70;99.90;;;;;;10469957;28;20238;-69
2022/05/22 03:49:03;;;;;;;2.60;2.03;;;13.70;99.90;;;;;;10476337;28;20215;-68
2022/05/22 03:54:04;;;;;;;3.70;2.30;;;13.70;99.90;;;;;;10460774;28;20631;-70
2022/05/22 03:59:04;;;;;;;3.83;2.10;;;13.80;99.90;;;;;;10460997;28;20686;-70
2022/05/22 04:04:05;;;;;;;3.83;2.40;;;13.90;99.90;;;;;;10471428;28;20219;-69
2022/05/22 04:09:05;;;;;;;2.60;2.07;;;14.00;99.90;;;;;;10468068;28;20225;-70
2022/05/22 04:14:07;;;;;;;4.40;2.50;;;14.10;99.90;;;;;;10467668;28;20228;-69
2022/05/22 04:19:08;;;;;;;5.27;2.30;;;14.20;99.90;;;;;;10463732;28;20230;-70
2022/05/22 04:29:27;;;;;;;3.53;2.20;;;14.50;99.90;;;;;;10473779;28;20324;-69
2022/05/22 04:34:28;;;;;;;2.77;2.20;;;14.60;99.90;;;;;;10468421;28;20223;-69
2022/05/22 04:39:29;;;;;;;5.27;2.40;;;14.80;99.90;;;;;;10465390;28;20219;-69
2022/05/22 04:44:29;;;;;;;3.67;2.13;;;14.90;99.90;;;;;;10472284;28;20277;-69
2022/05/22 04:49:30;;;;;;;2.63;1.90;;;15.00;99.90;;;;;;10465972;28;20238;-69
2022/05/22 04:54:30;;;;;;;4.13;2.50;;;15.30;99.90;;;;;;10472698;28;20222;-68
2022/05/22 04:59:31;;;;;;;3.80;2.07;;;15.90;99.90;;;;;;10464633;28;20216;-69
2022/05/22 05:04:32;;;;;;;6.23;2.10;;;18.00;99.90;;;;;;10471901;28;20213;-69
2022/05/22 05:09:34;;;;;;;2.90;2.00;;;17.90;99.90;;;;;;10470725;28;20223;-70
2022/05/22 05:14:35;;;;;;;3.40;2.47;;;17.90;99.90;;;;;;10448858;28;20846;-70
2022/05/22 05:19:36;;;;;;;4.00;1.73;;;17.20;99.90;;;;;;10464841;28;20295;-69
2022/05/22 05:24:37;;;;;;;5.30;2.30;;;16.90;99.90;;;;;;10462902;28;20304;-69
2022/05/22 05:29:41;;;;;;;2.43;2.10;;;16.90;99.90;;;;;;10471229;28;20227;-70
2022/05/22 05:34:41;;;;;;;5.53;2.00;;;17.10;99.90;;;;;;10463966;28;20231;-69
2022/05/22 05:39:42;;;;;;;2.90;1.83;;;19.80;99.90;;;;;;10460986;28;20215;-70
2022/05/22 05:44:42;;;;;;;2.97;1.87;;;21.90;99.50;;;;;;10465628;28;20757;-69
2022/05/22 05:49:43;;;;;;;5.73;2.50;;;23.60;92.60;;;;;;10472323;28;20235;-70
2022/05/22 05:54:43;;;;;;;4.83;2.67;;;24.70;83.40;;;;;;10468244;28;20926;-70
2022/05/22 05:59:44;;;;;;;7.57;3.77;;;25.30;76.90;;;;;;10471973;28;20713;-69
2022/05/22 06:04:45;;;;;;;5.00;3.47;;;25.70;71.40;;;;;;10470544;28;20775;-70
2022/05/22 06:09:45;;;;;;;5.57;2.40;;;25.50;67.90;;;;;;10472691;28;20249;-69
2022/05/22 06:14:46;;;;;;;5.90;3.60;;;25.60;67.20;;;;;;10461140;28;20226;-70
2022/05/22 06:19:59;;;;;;;6.97;3.60;;;25.80;67.10;;;;;;10465294;28;20219;-70
2022/05/22 06:25:04;;;;;;;4.50;2.53;;;26.30;63.70;;;;;;10470733;28;20702;-70
2022/05/22 06:30:06;;;;;;;4.67;2.00;;;26.50;62.10;;;;;;10474024;28;20211;-70
2022/05/22 06:35:09;;;;;;;5.13;1.67;;;26.90;58.40;;;;;;10463177;28;20203;-71
2022/05/22 06:40:10;;;;;;;4.10;1.77;;;26.80;58.10;;;;;;10470267;28;20203;-71
2022/05/22 06:45:14;;;;;;;2.50;1.60;;;27.30;57.20;;;;;;10469942;28;20199;-70
2022/05/22 06:50:18;;;;;;;3.27;1.70;;;28.00;54.80;;;;;;10472222;28;20192;-70
2022/05/22 06:55:19;;;;;;;3.17;1.70;;;27.60;53.80;;;;;;10475670;28;20604;-71
2022/05/22 07:00:20;;;;;;;4.13;2.10;;;27.30;54.70;;;;;;10469757;28;20179;-70
2022/05/22 07:05:21;;;;;;;4.13;2.10;;;27.60;52.90;;;;;;10461708;28;20226;-70
2022/05/22 07:11:38;;;;;;;4.53;2.33;;;28.20;51.40;;;;;;10472632;28;20588;-71
2022/05/22 07:15:42;;;;;;;3.17;1.80;;;29.30;49.70;;;;;;10455718;28;20226;-70
2022/05/22 07:20:43;;;;;;;2.53;1.43;;;30.60;46.80;;;;;;10472935;28;20216;-70
2022/05/22 07:25:44;;;;;;;3.87;1.70;;;32.70;44.00;;;;;;10465494;28;20273;-70
2022/05/22 07:30:44;;;;;;;2.67;1.90;;;33.20;41.30;;;;;;10475494;28;20246;-70
2022/05/22 07:35:55;;;;;;;3.17;1.60;;;34.30;39.20;;;;;;10469727;28;20888;-70
2022/05/22 07:40:56;;;;;;;3.37;1.47;;;34.20;38.80;;;;;;10478330;28;20226;-71
2022/05/22 07:45:57;;;;;;;2.23;1.50;;;34.20;37.20;;;;;;10463651;28;20231;-71
2022/05/22 07:51:00;;;;;;;3.43;1.63;;;35.00;36.80;;;;;;10467997;28;20374;-70
2022/05/22 07:56:02;;;;;;;4.23;1.77;;;35.60;34.50;;;;;;10470482;28;20305;-70
2022/05/22 08:01:03;;;;;;;2.80;1.30;;;36.00;34.90;;;;;;10463186;28;20303;-71
2022/05/22 08:06:03;;;;;;;3.43;1.70;;;37.70;33.30;;;;;;10466139;28;20222;-71
2022/05/22 08:11:04;;;;;;;3.83;2.30;;;38.60;31.60;;;;;;10470699;28;20227;-70
2022/05/22 08:16:05;;;;;;;2.37;1.57;;;38.00;30.80;;;;;;10485045;28;20223;-70
2022/05/22 08:21:06;;;;;;;5.90;2.07;;;38.30;30.60;;;;;;10465644;28;20868;-70
2022/05/22 08:26:07;;;;;;;2.13;1.80;;;40.20;29.30;;;;;;10470620;28;20219;-71
2022/05/22 08:31:07;;;;;;;2.83;2.03;;;41.70;27.50;;;;;;10469074;28;20228;-70
2022/05/22 08:36:08;;;;;;;5.10;2.13;;;41.40;26.80;;;;;;10469881;28;20219;-70
2022/05/22 08:41:11;;;;;;;1.63;1.50;;;40.90;27.30;;;;;;10465754;28;20227;-70
2022/05/22 08:46:14;;;;;;;3.03;1.80;;;41.70;27.00;;;;;;10467518;28;20239;-70
2022/05/22 08:51:31;;;;;;;6.17;1.87;;;41.60;26.80;;;;;;10463276;28;20289;-72
2022/05/22 09:02:17;;;;;;;4.90;1.70;;;41.00;27.00;;;;;;10462041;28;20231;-71
2022/05/22 09:07:55;;;;;;;4.47;1.90;;;41.60;26.30;;;;;;10466501;28;20230;-70
2022/05/22 09:13:06;;;;;;;3.13;1.70;;;42.30;25.70;;;;;;10459845;28;20757;-71
2022/05/22 09:18:30;;;;;;;4.60;1.77;;;40.20;26.70;;;;;;10467298;28;20277;-71
2022/05/22 09:23:55;;;;;;;3.27;1.80;;;39.70;27.70;;;;;;10457820;28;20306;-70
2022/05/22 09:28:58;;;;;;;2.87;1.67;;;38.30;28.20;;;;;;10466819;28;20215;-71
2022/05/22 09:34:29;;;;;;;2.80;1.60;;;38.90;28.50;;;;;;10467435;28;20249;-70
2022/05/22 09:39:51;;;;;;;2.93;1.73;;;39.80;27.80;;;;;;10471055;28;20255;-70
2022/05/22 09:45:16;;;;;;;4.00;1.60;;;42.60;25.60;;;;;;10468098;28;20234;-70
2022/05/22 09:50:27;;;;;;;2.33;1.50;;;44.30;24.10;;;;;;10465483;28;20230;-69
2022/05/22 09:55:42;;;;;;;2.97;1.73;;;43.40;24.60;;;;;;10471770;28;20239;-70
2022/05/22 10:00:53;;;;;;;2.45;1.50;;;44.40;23.90;;;;;;10473311;28;20651;-69
2022/05/22 10:06:13;;;;;;;5.97;1.67;;;44.20;23.70;;;;;;10468489;28;20710;-69
2022/05/22 10:11:24;;;;;;;4.60;1.60;;;44.20;23.90;;;;;;10463922;28;20219;-70
2022/05/22 10:17:05;;;;;;;2.13;1.40;;;44.60;23.10;;;;;;10473610;28;20267;-69
2022/05/22 10:22:12;;;;;;;2.63;1.40;;;42.90;24.30;;;;;;10471827;28;20223;-69
2022/05/22 10:27:12;;;;;;;5.75;1.80;;;44.10;23.40;;;;;;10488367;28;20231;-69
2022/05/22 10:32:25;;;;;;;3.65;1.40;;;44.80;22.80;;;;;;10458032;28;20227;-69
2022/05/22 10:37:51;;;;;;;2.33;1.27;;;44.70;22.90;;;;;;10471540;28;20301;-70
2022/05/22 10:42:56;;;;;;;2.25;1.08;;;44.40;23.30;;;;;;10478564;28;20240;-69
2022/05/22 10:48:05;;;;;;;2.75;1.50;;;44.20;23.10;;;;;;10476836;28;20626;-69
2022/05/22 10:53:30;;;;;;;4.35;1.73;;;43.90;22.80;;;;;;10478407;28;20729;-70
2022/05/22 10:58:33;;;;;;;3.23;1.30;;;42.60;23.20;;;;;;10468882;28;20220;-70
2022/05/22 11:03:35;;;;;;;2.83;1.50;;;42.00;24.50;;;;;;10463249;28;20224;-71
2022/05/22 11:08:36;;;;;;;2.27;1.50;;;41.60;24.30;;;;;;10462208;28;20220;-70
2022/05/22 11:13:38;;;;;;;2.73;1.13;;;42.10;24.00;;;;;;10468167;28;20222;-69
2022/05/22 11:18:39;;;;;;;2.67;1.40;;;41.40;24.80;;;;;;10467743;28;20218;-70
2022/05/22 11:23:53;;;;;;;3.00;1.40;;;41.90;23.80;;;;;;10468270;28;20216;-70
2022/05/22 11:29:22;;;;;;;3.00;1.53;;;41.40;23.30;;;;;;10476605;28;20244;-70
2022/05/22 11:34:47;;;;;;;2.10;1.30;;;42.30;23.30;;;;;;10468382;28;20234;-70
2022/05/22 11:40:13;;;;;;;5.37;1.70;;;41.60;23.80;;;;;;10454602;28;20240;-70
2022/05/22 11:45:34;;;;;;;2.57;1.50;;;37.70;26.70;;;;;;10469038;28;20263;-69
2022/05/22 11:50:57;;;;;;;2.47;1.40;;;34.20;29.80;;;;;;10472142;28;20683;-70
2022/05/22 11:56:24;;;;;;;1.73;1.13;;;32.20;33.20;;;;;;10458859;28;20227;-70
2022/05/22 12:01:45;;;;;;;4.53;1.20;;;30.80;35.00;;;;;;10466067;28;20265;-70
2022/05/22 12:06:55;;;;;;;5.70;1.83;;;29.80;36.20;;;;;;10459292;28;20247;-69
2022/05/22 12:12:03;;;;;;;2.53;1.27;;;29.00;38.50;;;;;;10462958;28;20218;-70
2022/05/22 12:17:20;;;;;;;4.57;1.40;;;28.40;38.60;;;;;;10469947;28;20228;-70
2022/05/22 12:23:07;;;;;;;3.47;1.30;;;28.30;40.70;;;;;;10471151;28;20268;-73
2022/05/22 12:27:48;;;;;;;2.80;1.70;;;28.20;39.60;;;;;;10457614;28;20283;-70
2022/05/22 12:33:09;;;;;;;3.93;1.20;;;28.10;39.70;;;;;;10464261;28;20215;-69
2022/05/22 12:38:12;;;;;;;2.40;1.30;;;27.70;39.80;;;;;;10461309;28;20256;-70
2022/05/22 12:43:18;;;;;;;3.60;1.27;;;27.50;41.40;;;;;;10470349;28;20229;-70
2022/05/22 12:48:33;;;;;;;2.40;1.60;;;27.40;40.70;;;;;;10468742;28;20763;-70
2022/05/22 12:53:36;;;;;;;4.83;1.27;;;27.00;40.20;;;;;;10467410;28;20769;-70
2022/05/22 12:58:41;;;;;;;4.27;1.50;;;27.00;41.10;;;;;;10467785;28;20214;-69
2022/05/22 13:03:49;;;;;;;5.07;1.50;;;26.80;40.70;;;;;;10456432;28;20219;-69
2022/05/22 13:09:06;;;;;;;3.63;1.40;;;26.80;41.30;;;;;;10464671;28;20222;-69
2022/05/22 13:14:20;;;;;;;2.47;1.57;;;27.10;40.50;;;;;;10460181;28;20276;-69
2022/05/22 13:19:24;;;;;;;3.80;1.50;;;26.90;40.20;;;;;;10467953;28;20215;-70
2022/05/22 13:24:30;;;;;;;2.43;1.43;;;26.40;40.90;;;;;;10472649;28;20255;-70
2022/05/22 13:30:01;;;;;;;3.23;1.50;;;26.30;42.10;;;;;;10473806;28;20713;-69
2022/05/22 13:35:13;;;;;;;4.27;1.30;;;26.40;41.60;;;;;;10461304;28;20290;-69
2022/05/22 13:40:38;;;;;;;4.27;1.20;;;26.50;41.60;;;;;;10457456;28;20696;-69
2022/05/22 13:46:01;;;;;;;2.73;1.43;;;26.20;41.20;;;;;;10450491;28;20999;-69
2022/05/22 13:56:51;;;;;;;2.57;1.33;;;26.60;42.50;;;;;;10458144;28;20604;-70
2022/05/22 14:01:53;;;;;;;2.63;1.30;;;26.80;42.00;;;;;;10464777;28;20223;-69
2022/05/22 14:06:54;;;;;;;2.60;1.33;;;26.90;41.90;;;;;;10458177;28;20220;-68
2022/05/22 14:11:56;;;;;;;3.63;1.40;;;27.10;47.70;;;;;;10459723;28;20543;-72
2022/05/22 14:17:01;;;;;;;1.57;1.20;;;26.50;41.70;;;;;;10469532;28;20224;-69
2022/05/22 14:22:15;;;;;;;2.27;1.10;;;26.10;42.50;;;;;;10478308;28;20227;-71
2022/05/22 14:27:19;;;;;;;1.53;1.20;;;26.20;42.00;;;;;;10479390;28;20219;-70
2022/05/22 14:32:21;;;;;;;3.83;1.67;;;26.10;42.20;;;;;;10469865;28;20228;-70
2022/05/22 14:37:22;;;;;;;5.07;1.13;;;25.90;42.70;;;;;;10470620;28;20234;-70
2022/05/22 14:42:28;;;;;;;2.20;1.43;;;26.10;44.50;;;;;;10469292;28;20770;-70
2022/05/22 14:47:30;;;;;;;1.87;1.00;;;26.40;42.30;;;;;;10467690;28;20601;-70
2022/05/22 14:52:40;;;;;;;3.70;1.33;;;26.60;42.20;;;;;;10458141;28;20746;-70
2022/05/22 14:57:48;;;;;;;5.90;1.53;;;26.70;42.10;;;;;;10449902;28;20234;-70
2022/05/22 15:03:04;;;;;;;2.87;1.57;;;26.70;44.70;;;;;;10469751;28;20237;-70
2022/05/22 15:08:20;;;;;;;2.73;1.70;;;26.90;43.20;;;;;;10476959;28;20218;-70
2022/05/22 15:13:23;;;;;;;1.50;1.13;;;27.00;41.40;;;;;;10470283;28;20215;-70
2022/05/22 15:29:28;;;;;;;2.70;1.50;;;26.60;43.00;;;;;;10452129;28;20254;-70
2022/05/22 15:34:29;;;;;;;2.03;1.80;;;26.70;43.30;;;;;;10473989;28;20282;-70
2022/05/22 15:39:32;;;;;;;2.23;1.50;;;26.90;43.60;;;;;;10466184;28;20219;-70
2022/05/22 15:44:37;;;;;;;4.67;1.20;;;26.40;44.20;;;;;;10474884;28;20315;-70
2022/05/22 15:54:59;;;;;;;4.60;1.57;;;26.20;43.80;;;;;;10447849;28;20306;-70
2022/05/22 16:00:00;;;;;;;4.93;1.40;;;26.70;44.00;;;;;;10450102;28;20222;-70
2022/05/22 16:05:01;;;;;;;5.20;2.20;;;26.90;44.40;;;;;;10450988;28;20700;-70
2022/05/22 16:10:03;;;;;;;6.87;1.83;;;27.00;43.70;;;;;;10459284;28;20229;-70
2022/05/22 16:15:04;;;;;;;1.97;1.57;;;26.70;44.00;;;;;;10462536;28;20230;-69
2022/05/22 16:20:09;;;;;;;1.97;1.20;;;26.60;43.80;;;;;;10451106;28;20263;-70
2022/05/22 16:25:12;;;;;;;3.07;1.80;;;26.60;44.40;;;;;;10449095;28;20184;-70
2022/05/22 16:30:13;;;;;;;3.83;1.40;;;26.50;44.60;;;;;;10445263;28;20193;-71
2022/05/22 16:35:26;;;;;;;2.90;1.37;;;26.00;45.40;;;;;;10464528;28;20248;-71
2022/05/22 16:40:27;;;;;;;2.87;1.80;;;25.70;46.60;;;;;;10455373;28;20234;-70
2022/05/22 16:45:28;;;;;;;5.27;1.87;;;25.40;46.90;;;;;;10457696;28;20229;-71
2022/05/22 16:55:51;;;;;;;3.27;1.53;;;24.70;48.80;;;;;;10451750;28;20215;-72
2022/05/22 17:00:53;;;;;;;4.70;1.90;;;24.80;48.60;;;;;;10459574;28;20632;-72
2022/05/22 17:05:57;;;;;;;2.87;1.33;;;24.50;49.00;;;;;;10466120;28;20227;-71
2022/05/22 17:10:59;;;;;;;4.00;2.23;;;24.30;49.90;;;;;;10464767;28;20220;-72
2022/05/22 17:16:00;;;;;;;8.00;2.20;;;24.20;50.40;;;;;;10461845;28;20350;-71
2022/05/22 17:21:02;;;;;;;7.13;2.63;;;24.00;50.20;;;;;;10456031;28;20706;-70
2022/05/22 17:26:08;;;;;;;5.10;2.00;;;24.00;50.80;;;;;;10460031;28;20318;-71
2022/05/22 17:31:09;;;;;;;2.47;1.70;;;24.00;50.80;;;;;;10454799;28;20344;-71
2022/05/22 17:36:17;;;;;;;4.77;2.00;;;23.80;50.80;;;;;;10460622;28;20342;-70
2022/05/22 17:41:18;;;;;;;3.90;1.80;;;23.60;51.10;;;;;;10445736;28;20228;-70
2022/05/22 17:46:21;;;;;;;3.13;1.73;;;23.50;50.90;;;;;;10462558;28;20230;-71
2022/05/22 17:51:25;;;;;;;2.70;1.73;;;23.40;51.70;;;;;;10468753;28;20250;-70
2022/05/22 17:56:26;;;;;;;4.10;1.50;;;23.20;52.20;;;;;;10464676;28;20224;-72
2022/05/22 18:01:27;;;;;;;6.10;2.07;;;23.10;52.60;;;;;;10490155;28;20723;-70
2022/05/22 18:06:27;;;;;;;3.03;1.67;;;23.10;52.90;;;;;;10478334;28;20226;-72
2022/05/22 18:16:51;;;;;;;4.27;2.27;;;22.90;53.30;;;;;;10452191;28;20227;-71
2022/05/22 18:21:52;;;;;;;6.00;2.43;;;22.70;54.00;;;;;;10469877;28;20243;-70
2022/05/22 18:26:55;;;;;;;4.07;2.47;;;22.70;54.30;;;;;;10477413;28;20231;-72
2022/05/22 18:31:56;;;;;;;9.63;3.70;;;22.50;54.30;;;;;;10461689;28;20212;-72
2022/05/22 18:36:57;;;;;;;5.97;2.20;;;22.40;54.90;;;;;;10458231;28;20699;-72
2022/05/22 18:41:58;;;;;;;8.27;2.83;;;22.30;55.10;;;;;;10462561;28;20812;-73
2022/05/22 18:46:59;;;;;;;3.80;1.57;;;22.20;55.70;;;;;;10465562;28;20284;-72
2022/05/22 18:52:03;;;;;;;3.60;1.77;;;22.00;56.00;;;;;;10489947;28;20693;-73
2022/05/22 18:57:04;;;;;;;5.03;2.47;;;21.90;56.60;;;;;;10452796;28;20315;-71
2022/05/22 19:02:05;;;;;;;4.83;2.20;;;21.80;56.80;;;;;;10461812;28;20306;-71
2022/05/22 19:07:06;;;;;;;4.70;2.10;;;21.70;56.90;;;;;;10464873;28;20219;-72
2022/05/22 19:12:08;;;;;;;3.60;1.70;;;21.60;57.10;;;;;;10466493;28;20215;-72
2022/05/22 19:17:09;;;;;;;5.13;2.50;;;21.50;57.50;;;;;;10473801;28;20227;-71
2022/05/22 19:22:10;;;;;;;3.60;2.23;;;21.40;57.60;;;;;;10466245;28;20211;-71
2022/05/22 19:27:11;;;;;;;5.23;2.00;;;21.30;58.10;;;;;;10473538;28;20220;-72
2022/05/22 19:32:19;;;;;;;4.60;2.27;;;21.10;58.40;;;;;;10467926;28;20602;-71
2022/05/22 19:37:21;;;;;;;5.63;2.00;;;21.00;58.90;;;;;;10475314;28;20235;-71
2022/05/22 19:47:57;;;;;;;4.17;2.30;;;20.80;59.00;;;;;;10469543;28;20224;-72
2022/05/22 19:52:58;;;;;;;6.67;2.03;;;20.70;59.40;;;;;;10484263;28;20229;-73
2022/05/22 20:03:18;;;;;;;4.80;2.57;;;20.80;59.70;;;;;;10460556;28;20661;-71
2022/05/22 20:08:26;;;;;;;4.30;2.60;;;20.90;59.80;;;;;;10461729;28;20304;-69
2022/05/22 20:13:27;;;;;;;7.70;2.53;;;20.80;60.00;;;;;;10457768;28;20919;-70
2022/05/22 20:18:28;;;;;;;5.10;1.97;;;20.80;61.20;;;;;;10469995;28;20232;-70
2022/05/22 20:23:29;;;;;;;3.63;2.00;;;20.70;60.10;;;;;;10455060;28;20865;-72
2022/05/22 20:28:36;;;;;;;7.40;2.33;;;20.60;60.60;;;;;;10467929;28;20314;-70
2022/05/22 20:33:38;;;;;;;5.47;2.20;;;20.70;60.80;;;;;;10450064;28;20216;-70
2022/05/22 20:38:39;;;;;;;4.47;2.40;;;20.50;60.40;;;;;;10464599;28;20253;-68
2022/05/22 20:43:47;;;;;;;4.63;1.93;;;20.50;62.20;;;;;;10466357;28;20238;-71
2022/05/22 20:48:48;;;;;;;5.87;2.07;;;20.40;62.00;;;;;;10448552;28;20224;-73
2022/05/22 20:53:48;;;;;;;4.60;2.10;;;20.20;62.70;;;;;;10448297;28;20293;-72
2022/05/22 20:58:49;;;;;;;5.63;2.23;;;20.00;64.40;;;;;;10450998;28;20238;-72
2022/05/22 21:03:50;;;;;;;4.23;2.10;;;19.80;64.40;;;;;;10456418;28;20260;-71
2022/05/22 21:08:51;;;;;;;4.07;2.30;;;19.80;65.20;;;;;;10464203;28;20698;-73
2022/05/22 21:13:52;;;;;;;6.93;2.60;;;19.90;65.00;;;;;;10458177;28;20239;-72
2022/05/22 21:18:53;;;;;;;3.53;2.50;;;19.80;64.50;;;;;;10470022;28;20215;-75
2022/05/22 21:29:13;;;;;;;4.33;2.23;;;19.60;65.50;;;;;;10463814;28;20694;-72
2022/05/22 21:34:13;;;;;;;7.13;2.33;;;19.50;65.90;;;;;;10475464;28;20298;-72
2022/05/22 21:39:15;;;;;;;3.53;2.40;;;19.50;66.40;;;;;;10467608;28;20682;-72
2022/05/22 21:44:33;;;;;;;4.60;2.63;;;19.40;66.50;;;;;;10474030;28;20235;-73
2022/05/22 21:49:34;;;;;;;5.13;2.10;;;19.30;67.30;;;;;;10471162;28;20215;-72
2022/05/22 21:54:34;;;;;;;7.67;3.13;;;19.20;68.10;;;;;;10467505;28;20215;-73
2022/05/22 21:59:35;;;;;;;5.73;2.40;;;19.20;69.00;;;;;;10484674;28;20305;-72
2022/05/22 22:04:36;;;;;;;4.27;2.50;;;19.10;70.00;;;;;;10471874;28;20265;-72
2022/05/22 22:09:36;;;;;;;4.17;2.17;;;19.10;70.50;;;;;;10454959;28;20277;-72
2022/05/22 22:14:38;;;;;;;7.57;2.40;;;19.20;70.80;;;;;;10479474;28;20644;-72
2022/05/22 22:19:38;;;;;;;3.97;2.03;;;19.30;70.70;;;;;;10464176;28;20212;-73
2022/05/22 22:24:39;;;;;;;3.07;2.17;;;19.40;70.80;;;;;;10462818;28;20218;-72
2022/05/22 22:29:43;;;;;;;3.37;2.00;;;19.40;71.00;;;;;;10462190;28;20377;-72
2022/05/22 22:34:43;;;;;;;4.37;2.20;;;19.30;71.90;;;;;;10467949;28;20259;-72
2022/05/22 22:39:44;;;;;;;3.67;2.30;;;19.20;73.10;;;;;;10468351;28;20243;-72
2022/05/22 22:44:45;;;;;;;4.50;1.80;;;19.00;73.70;;;;;;10477113;28;20227;-72
2022/05/22 22:49:45;;;;;;;4.73;2.23;;;18.80;75.60;;;;;;10481705;28;20227;-72
2022/05/22 23:00:12;;;;;;;4.33;2.03;;;18.70;77.80;;;;;;10471584;28;20204;-73
2022/05/22 23:05:14;;;;;;;4.57;2.33;;;18.80;77.50;;;;;;10465154;28;20183;-73
2022/05/22 23:10:15;;;;;;;3.33;2.00;;;18.70;77.80;;;;;;10472698;28;20266;-72
2022/05/22 23:15:19;;;;;;;1.83;1.40;;;18.70;78.90;;;;;;10470513;28;20206;-72
2022/05/22 23:20:20;;;;;;;2.57;1.70;;;18.80;79.70;;;;;;10466393;28;20191;-73
2022/05/22 23:25:20;;;;;;;5.67;1.60;;;18.70;80.20;;;;;;10472459;28;20239;-73
2022/05/22 23:30:22;;;;;;;3.80;1.60;;;18.60;80.80;;;;;;10462368;28;20299;-72
2022/05/22 23:35:22;;;;;;;2.83;1.57;;;18.60;81.70;;;;;;10466507;28;20321;-72
2022/05/22 23:40:31;;;;;;;3.03;1.80;;;18.60;82.00;;;;;;10461387;28;20799;-72
2022/05/22 23:45:32;;;;;;;2.73;1.80;;;18.60;82.00;;;;;;10459081;28;20280;-71
2022/05/22 23:50:34;;;;;;;4.97;2.10;;;18.60;82.10;;;;;;10457332;28;20639;-72
2022/05/22 23:55:35;;;;;;;3.33;1.90;;;18.60;82.80;;;;;;10467871;28;20227;-72
